sensor_id;sensor_type;location;lat;lon;timestamp;pressure;altitude;pressure_sealevel;temperature;humidity
61408;BME280;47274;43.054;25.146;2023-02-28T00:01:07;96114.63;;;3.78;100.00
61408;BME280;47274;43.054;25.146;2023-02-28T00:03:44;96110.66;;;3.74;100.00
61408;BME280;47274;43.054;25.146;2023-02-28T00:06:16;96095.66;;;3.55;100.00
61408;BME280;47274;43.054;25.146;2023-02-28T00:08:42;96107.38;;;3.58;100.00
61408;BME280;47274;43.054;25.146;2023-02-28T00:11:14;96102.41;;;3.56;100.00
61408;BME280;47274;43.054;25.146;2023-02-28T00:13:50;96172.97;;;3.94;100.00
61408;BME280;47274;43.054;25.146;2023-02-28T00:16:21;96130.13;;;3.60;100.00
61408;BME280;47274;43.054;25.146;2023-02-28T00:18:50;96107.06;;;3.48;100.00
61408;BME280;47274;43.054;25.146;2023-02-28T00:21:24;96207.06;;;4.19;100.00
61408;BME280;47274;43.054;25.146;2023-02-28T00:24:01;96114.44;;;3.67;100.00
61408;BME280;47274;43.054;25.146;2023-02-28T00:26:34;96179.66;;;4.10;100.00
61408;BME280;47274;43.054;25.146;2023-02-28T00:29:03;96211.78;;;4.25;100.00
61408;BME280;47274;43.054;25.146;2023-02-28T00:31:41;96144.47;;;3.89;100.00
61408;BME280;47274;43.054;25.146;2023-02-28T00:34:32;96176.13;;;4.12;100.00
61408;BME280;47274;43.054;25.146;2023-02-28T00:37:10;96099.69;;;3.60;100.00
61408;BME280;47274;43.054;25.146;2023-02-28T00:39:42;96145.03;;;3.80;100.00
61408;BME280;47274;43.054;25.146;2023-02-28T00:42:15;96106.91;;;3.51;100.00
61408;BME280;47274;43.054;25.146;2023-02-28T00:44:47;96121.41;;;3.49;100.00
61408;BME280;47274;43.054;25.146;2023-02-28T00:47:16;96114.44;;;3.53;100.00
61408;BME280;47274;43.054;25.146;2023-02-28T00:49:42;96097.78;;;3.49;100.00
61408;BME280;47274;43.054;25.146;2023-02-28T00:52:18;96118.78;;;3.65;100.00
61408;BME280;47274;43.054;25.146;2023-02-28T00:54:44;96183.94;;;4.09;100.00
61408;BME280;47274;43.054;25.146;2023-02-28T00:57:13;96158.25;;;3.99;100.00
61408;BME280;47274;43.054;25.146;2023-02-28T00:59:39;96135.56;;;3.82;100.00
61408;BME280;47274;43.054;25.146;2023-02-28T01:02:05;96087.97;;;3.57;100.00
61408;BME280;47274;43.054;25.146;2023-02-28T01:04:32;96147.75;;;3.91;100.00
61408;BME280;47274;43.054;25.146;2023-02-28T01:07:06;96091.44;;;3.56;100.00
61408;BME280;47274;43.054;25.146;2023-02-28T01:09:35;96112.56;;;3.71;100.00
61408;BME280;47274;43.054;25.146;2023-02-28T01:12:07;96082.97;;;3.55;100.00
61408;BME280;47274;43.054;25.146;2023-02-28T01:14:34;96101.59;;;3.70;100.00
61408;BME280;47274;43.054;25.146;2023-02-28T01:17:06;96180.69;;;4.21;100.00
61408;BME280;47274;43.054;25.146;2023-02-28T01:19:35;96117.28;;;3.91;100.00
61408;BME280;47274;43.054;25.146;2023-02-28T01:22:08;96195.81;;;4.37;100.00
61408;BME280;47274;43.054;25.146;2023-02-28T01:24:37;96120.81;;;3.89;100.00
61408;BME280;47274;43.054;25.146;2023-02-28T01:27:13;96131.50;;;4.08;100.00
61408;BME280;47274;43.054;25.146;2023-02-28T01:29:51;96115.91;;;4.00;100.00
61408;BME280;47274;43.054;25.146;2023-02-28T01:32:26;96089.06;;;3.82;100.00
61408;BME280;47274;43.054;25.146;2023-02-28T01:34:55;96095.50;;;3.87;100.00
61408;BME280;47274;43.054;25.146;2023-02-28T01:37:30;96175.28;;;4.40;100.00
61408;BME280;47274;43.054;25.146;2023-02-28T01:39:59;96130.22;;;4.15;100.00
61408;BME280;47274;43.054;25.146;2023-02-28T01:42:36;96092.63;;;3.93;100.00
61408;BME280;47274;43.054;25.146;2023-02-28T01:47:55;96121.63;;;4.18;100.00
61408;BME280;47274;43.054;25.146;2023-02-28T01:50:43;96207.09;;;4.74;100.00
61408;BME280;47274;43.054;25.146;2023-02-28T01:53:35;96133.41;;;4.19;100.00
61408;BME280;47274;43.054;25.146;2023-02-28T01:56:18;96102.66;;;4.09;100.00
61408;BME280;47274;43.054;25.146;2023-02-28T01:59:11;96155.38;;;4.34;100.00
61408;BME280;47274;43.054;25.146;2023-02-28T02:01:38;96164.13;;;4.43;100.00
61408;BME280;47274;43.054;25.146;2023-02-28T02:04:27;96209.94;;;4.70;100.00
61408;BME280;47274;43.054;25.146;2023-02-28T02:07:00;96208.56;;;4.64;100.00
61408;BME280;47274;43.054;25.146;2023-02-28T02:09:48;96200.69;;;4.55;100.00
61408;BME280;47274;43.054;25.146;2023-02-28T02:15:12;96149.63;;;4.16;100.00
61408;BME280;47274;43.054;25.146;2023-02-28T02:17:45;96166.78;;;4.27;100.00
61408;BME280;47274;43.054;25.146;2023-02-28T02:31:43;96262.06;;;4.77;100.00
61408;BME280;47274;43.054;25.146;2023-02-28T02:34:47;96263.84;;;4.75;100.00
61408;BME280;47274;43.054;25.146;2023-02-28T02:37:25;96161.06;;;4.09;100.00
61408;BME280;47274;43.054;25.146;2023-02-28T02:43:07;96258.06;;;4.73;100.00
61408;BME280;47274;43.054;25.146;2023-02-28T02:45:55;96169.06;;;4.17;100.00
61408;BME280;47274;43.054;25.146;2023-02-28T02:48:47;96141.03;;;4.04;100.00
61408;BME280;47274;43.054;25.146;2023-02-28T02:51:30;96122.34;;;4.06;100.00
61408;BME280;47274;43.054;25.146;2023-02-28T02:57:40;96169.53;;;4.24;100.00
61408;BME280;47274;43.054;25.146;2023-02-28T03:00:24;96127.78;;;3.99;100.00
61408;BME280;47274;43.054;25.146;2023-02-28T03:02:56;96119.81;;;3.77;100.00
61408;BME280;47274;43.054;25.146;2023-02-28T03:05:35;96198.34;;;4.23;100.00
61408;BME280;47274;43.054;25.146;2023-02-28T03:08:05;96144.28;;;3.78;100.00
61408;BME280;47274;43.054;25.146;2023-02-28T03:10:46;96190.75;;;4.09;100.00
61408;BME280;47274;43.054;25.146;2023-02-28T03:13:51;96140.19;;;3.75;100.00
61408;BME280;47274;43.054;25.146;2023-02-28T03:16:56;96107.53;;;3.55;100.00
61408;BME280;47274;43.054;25.146;2023-02-28T03:28:08;96150.28;;;3.91;100.00
61408;BME280;47274;43.054;25.146;2023-02-28T03:37:16;96128.78;;;3.68;100.00
61408;BME280;47274;43.054;25.146;2023-02-28T03:40:17;96134.75;;;3.67;100.00
61408;BME280;47274;43.054;25.146;2023-02-28T03:43:20;96140.13;;;3.63;100.00
61408;BME280;47274;43.054;25.146;2023-02-28T03:46:04;96144.22;;;3.79;100.00
61408;BME280;47274;43.054;25.146;2023-02-28T03:51:46;96147.09;;;3.88;100.00
61408;BME280;47274;43.054;25.146;2023-02-28T03:54:59;96182.13;;;4.11;100.00
61408;BME280;47274;43.054;25.146;2023-02-28T03:57:38;96113.47;;;3.70;100.00
61408;BME280;47274;43.054;25.146;2023-02-28T04:00:30;96193.91;;;4.12;100.00
61408;BME280;47274;43.054;25.146;2023-02-28T04:02:58;96190.38;;;4.15;100.00
61408;BME280;47274;43.054;25.146;2023-02-28T04:05:33;96218.66;;;4.37;100.00
61408;BME280;47274;43.054;25.146;2023-02-28T04:08:09;96160.34;;;3.93;100.00
61408;BME280;47274;43.054;25.146;2023-02-28T04:10:35;96134.94;;;3.64;100.00
61408;BME280;47274;43.054;25.146;2023-02-28T04:13:12;96189.38;;;4.03;100.00
61408;BME280;47274;43.054;25.146;2023-02-28T04:15:49;96157.53;;;3.83;100.00
61408;BME280;47274;43.054;25.146;2023-02-28T04:18:36;96125.53;;;3.66;100.00
61408;BME280;47274;43.054;25.146;2023-02-28T04:21:13;96175.31;;;3.97;100.00
61408;BME280;47274;43.054;25.146;2023-02-28T04:23:42;96175.31;;;3.97;100.00
61408;BME280;47274;43.054;25.146;2023-02-28T04:26:08;96171.41;;;3.92;100.00
61408;BME280;47274;43.054;25.146;2023-02-28T04:28:37;96194.19;;;4.08;100.00
61408;BME280;47274;43.054;25.146;2023-02-28T04:34:12;96176.94;;;3.84;100.00
61408;BME280;47274;43.054;25.146;2023-02-28T04:36:46;96210.13;;;4.10;100.00
61408;BME280;47274;43.054;25.146;2023-02-28T04:39:27;96158.25;;;3.71;100.00
61408;BME280;47274;43.054;25.146;2023-02-28T04:42:07;96161.69;;;3.70;100.00
61408;BME280;47274;43.054;25.146;2023-02-28T04:44:53;96172.13;;;3.79;100.00
61408;BME280;47274;43.054;25.146;2023-02-28T04:47:24;96152.34;;;3.70;100.00
61408;BME280;47274;43.054;25.146;2023-02-28T04:50:13;96246.44;;;4.26;100.00
61408;BME280;47274;43.054;25.146;2023-02-28T04:52:42;96211.34;;;4.04;100.00
61408;BME280;47274;43.054;25.146;2023-02-28T04:55:22;96207.88;;;3.91;100.00
61408;BME280;47274;43.054;25.146;2023-02-28T04:57:59;96169.47;;;3.52;100.00
61408;BME280;47274;43.054;25.146;2023-02-28T05:00:28;96240.09;;;4.04;100.00
61408;BME280;47274;43.054;25.146;2023-02-28T05:02:54;96180.63;;;3.64;100.00
61408;BME280;47274;43.054;25.146;2023-02-28T05:05:31;96152.09;;;3.45;100.00
61408;BME280;47274;43.054;25.146;2023-02-28T05:08:00;96170.59;;;3.47;100.00
61408;BME280;47274;43.054;25.146;2023-02-28T05:10:47;96193.75;;;3.56;100.00
61408;BME280;47274;43.054;25.146;2023-02-28T05:13:22;96258.31;;;3.97;100.00
61408;BME280;47274;43.054;25.146;2023-02-28T05:15:55;96197.84;;;3.59;100.00
61408;BME280;47274;43.054;25.146;2023-02-28T05:18:23;96213.06;;;3.59;100.00
61408;BME280;47274;43.054;25.146;2023-02-28T05:20:52;96155.97;;;3.22;100.00
61408;BME280;47274;43.054;25.146;2023-02-28T05:23:25;96184.09;;;3.47;100.00
61408;BME280;47274;43.054;25.146;2023-02-28T05:25:59;96269.28;;;3.97;100.00
61408;BME280;47274;43.054;25.146;2023-02-28T05:28:35;96200.25;;;3.46;100.00
61408;BME280;47274;43.054;25.146;2023-02-28T05:31:01;96242.47;;;3.77;100.00
61408;BME280;47274;43.054;25.146;2023-02-28T05:33:40;96196.09;;;3.45;100.00
61408;BME280;47274;43.054;25.146;2023-02-28T05:36:18;96226.56;;;3.60;100.00
61408;BME280;47274;43.054;25.146;2023-02-28T05:38:48;96219.84;;;3.59;100.00
61408;BME280;47274;43.054;25.146;2023-02-28T05:41:16;96248.09;;;3.83;100.00
61408;BME280;47274;43.054;25.146;2023-02-28T05:43:48;96264.06;;;3.85;100.00
61408;BME280;47274;43.054;25.146;2023-02-28T05:46:36;96197.22;;;3.40;100.00
61408;BME280;47274;43.054;25.146;2023-02-28T05:49:11;96244.06;;;3.64;100.00
61408;BME280;47274;43.054;25.146;2023-02-28T05:52:05;96275.00;;;3.71;100.00
61408;BME280;47274;43.054;25.146;2023-02-28T05:54:42;96203.41;;;3.20;100.00
61408;BME280;47274;43.054;25.146;2023-02-28T05:57:26;96224.81;;;3.30;100.00
61408;BME280;47274;43.054;25.146;2023-02-28T06:00:06;96284.97;;;3.74;100.00
61408;BME280;47274;43.054;25.146;2023-02-28T06:02:50;96240.69;;;3.33;100.00
61408;BME280;47274;43.054;25.146;2023-02-28T06:05:46;96268.31;;;3.54;100.00
61408;BME280;47274;43.054;25.146;2023-02-28T06:08:12;96247.06;;;3.41;100.00
61408;BME280;47274;43.054;25.146;2023-02-28T06:10:54;96298.34;;;3.62;100.00
61408;BME280;47274;43.054;25.146;2023-02-28T06:13:23;96256.41;;;3.40;100.00
61408;BME280;47274;43.054;25.146;2023-02-28T06:15:49;96275.66;;;3.59;100.00
61408;BME280;47274;43.054;25.146;2023-02-28T06:18:18;96225.16;;;3.24;100.00
61408;BME280;47274;43.054;25.146;2023-02-28T06:20:44;96277.31;;;3.60;100.00
61408;BME280;47274;43.054;25.146;2023-02-28T06:23:10;96228.00;;;3.33;100.00
61408;BME280;47274;43.054;25.146;2023-02-28T06:25:36;96316.31;;;3.89;100.00
61408;BME280;47274;43.054;25.146;2023-02-28T06:28:05;96217.31;;;3.28;100.00
61408;BME280;47274;43.054;25.146;2023-02-28T06:30:48;96256.53;;;3.53;100.00
61408;BME280;47274;43.054;25.146;2023-02-28T06:33:38;96239.94;;;3.47;100.00
61408;BME280;47274;43.054;25.146;2023-02-28T06:36:19;96198.91;;;3.25;100.00
61408;BME280;47274;43.054;25.146;2023-02-28T06:38:46;96221.03;;;3.37;100.00
61408;BME280;47274;43.054;25.146;2023-02-28T06:41:23;96255.78;;;3.67;100.00
61408;BME280;47274;43.054;25.146;2023-02-28T06:43:52;96246.44;;;3.67;100.00
61408;BME280;47274;43.054;25.146;2023-02-28T06:46:45;96294.66;;;3.97;100.00
61408;BME280;47274;43.054;25.146;2023-02-28T06:49:36;96282.16;;;3.94;100.00
61408;BME280;47274;43.054;25.146;2023-02-28T06:52:05;96241.03;;;3.73;100.00
61408;BME280;47274;43.054;25.146;2023-02-28T06:57:43;96244.38;;;3.74;100.00
61408;BME280;47274;43.054;25.146;2023-02-28T07:00:10;96292.19;;;3.96;100.00
61408;BME280;47274;43.054;25.146;2023-02-28T07:02:37;96208.09;;;3.42;100.00
61408;BME280;47274;43.054;25.146;2023-02-28T07:05:06;96259.88;;;3.69;100.00
61408;BME280;47274;43.054;25.146;2023-02-28T07:07:35;96225.69;;;3.45;100.00
61408;BME280;47274;43.054;25.146;2023-02-28T07:10:10;96246.06;;;3.59;100.00
61408;BME280;47274;43.054;25.146;2023-02-28T07:12:41;96283.91;;;3.78;100.00
61408;BME280;47274;43.054;25.146;2023-02-28T07:15:16;96284.06;;;3.75;100.00
61408;BME280;47274;43.054;25.146;2023-02-28T07:18:07;96250.38;;;3.57;100.00
61408;BME280;47274;43.054;25.146;2023-02-28T07:20:45;96336.56;;;3.90;100.00
61408;BME280;47274;43.054;25.146;2023-02-28T07:23:29;96287.13;;;3.66;100.00
61408;BME280;47274;43.054;25.146;2023-02-28T07:25:55;96285.28;;;3.53;100.00
61408;BME280;47274;43.054;25.146;2023-02-28T07:28:41;96251.00;;;3.46;100.00
61408;BME280;47274;43.054;25.146;2023-02-28T07:31:13;96251.91;;;3.45;100.00
61408;BME280;47274;43.054;25.146;2023-02-28T07:33:42;96306.84;;;3.76;100.00
61408;BME280;47274;43.054;25.146;2023-02-28T07:36:22;96261.94;;;3.63;100.00
61408;BME280;47274;43.054;25.146;2023-02-28T07:39:01;96346.88;;;4.17;100.00
61408;BME280;47274;43.054;25.146;2023-02-28T07:41:28;96290.75;;;3.92;100.00
61408;BME280;47274;43.054;25.146;2023-02-28T07:47:04;96243.31;;;3.62;100.00
61408;BME280;47274;43.054;25.146;2023-02-28T07:49:47;96314.28;;;4.10;100.00
61408;BME280;47274;43.054;25.146;2023-02-28T07:52:21;96256.41;;;3.70;100.00
61408;BME280;47274;43.054;25.146;2023-02-28T07:54:59;96278.31;;;3.87;100.00
61408;BME280;47274;43.054;25.146;2023-02-28T07:57:35;96265.19;;;3.65;100.00
61408;BME280;47274;43.054;25.146;2023-02-28T08:00:13;96354.38;;;4.35;100.00
61408;BME280;47274;43.054;25.146;2023-02-28T08:02:59;96259.59;;;3.74;100.00
61408;BME280;47274;43.054;25.146;2023-02-28T08:05:29;96308.31;;;4.11;100.00
61408;BME280;47274;43.054;25.146;2023-02-28T08:08:26;96262.22;;;3.72;100.00
61408;BME280;47274;43.054;25.146;2023-02-28T08:11:01;96251.34;;;3.70;100.00
61408;BME280;47274;43.054;25.146;2023-02-28T08:14:10;96351.44;;;4.41;100.00
61408;BME280;47274;43.054;25.146;2023-02-28T08:16:59;96299.41;;;4.03;100.00
61408;BME280;47274;43.054;25.146;2023-02-28T08:19:25;96328.16;;;4.04;100.00
61408;BME280;47274;43.054;25.146;2023-02-28T08:24:31;96279.69;;;3.63;100.00
61408;BME280;47274;43.054;25.146;2023-02-28T08:27:01;96283.69;;;3.67;100.00
61408;BME280;47274;43.054;25.146;2023-02-28T08:29:27;96340.59;;;4.09;100.00
61408;BME280;47274;43.054;25.146;2023-02-28T08:31:54;96299.13;;;3.78;100.00
61408;BME280;47274;43.054;25.146;2023-02-28T08:34:33;96306.41;;;3.84;100.00
61408;BME280;47274;43.054;25.146;2023-02-28T08:37:01;96366.78;;;4.25;100.00
61408;BME280;47274;43.054;25.146;2023-02-28T08:39:37;96295.69;;;3.79;100.00
61408;BME280;47274;43.054;25.146;2023-02-28T08:42:08;96356.56;;;4.11;100.00
61408;BME280;47274;43.054;25.146;2023-02-28T08:44:34;96308.22;;;3.82;100.00
61408;BME280;47274;43.054;25.146;2023-02-28T08:47:03;96287.59;;;3.72;100.00
61408;BME280;47274;43.054;25.146;2023-02-28T08:49:33;96300.13;;;3.75;100.00
61408;BME280;47274;43.054;25.146;2023-02-28T08:51:59;96281.66;;;3.58;100.00
61408;BME280;47274;43.054;25.146;2023-02-28T08:54:25;96380.59;;;4.05;100.00
61408;BME280;47274;43.054;25.146;2023-02-28T08:56:59;96302.28;;;3.67;100.00
61408;BME280;47274;43.054;25.146;2023-02-28T08:59:28;96306.09;;;3.74;100.00
61408;BME280;47274;43.054;25.146;2023-02-28T09:02:07;96300.72;;;3.65;100.00
61408;BME280;47274;43.054;25.146;2023-02-28T09:04:34;96315.81;;;3.82;100.00
61408;BME280;47274;43.054;25.146;2023-02-28T09:07:00;96261.84;;;3.48;100.00
61408;BME280;47274;43.054;25.146;2023-02-28T09:09:34;96328.56;;;3.96;100.00
61408;BME280;47274;43.054;25.146;2023-02-28T09:12:09;96287.13;;;3.66;100.00
61408;BME280;47274;43.054;25.146;2023-02-28T09:14:35;96311.00;;;3.93;100.00
61408;BME280;47274;43.054;25.146;2023-02-28T09:17:16;96364.88;;;4.28;100.00
61408;BME280;47274;43.054;25.146;2023-02-28T09:19:51;96322.06;;;4.07;100.00
61408;BME280;47274;43.054;25.146;2023-02-28T09:22:28;96361.72;;;4.39;100.00
61408;BME280;47274;43.054;25.146;2023-02-28T09:25:49;96300.56;;;3.98;100.00
61408;BME280;47274;43.054;25.146;2023-02-28T09:28:20;96385.34;;;4.56;100.00
61408;BME280;47274;43.054;25.146;2023-02-28T09:30:52;96284.34;;;4.00;100.00
61408;BME280;47274;43.054;25.146;2023-02-28T09:33:26;96283.63;;;3.83;100.00
61408;BME280;47274;43.054;25.146;2023-02-28T09:38:58;96328.16;;;4.04;100.00
61408;BME280;47274;43.054;25.146;2023-02-28T09:41:36;96290.56;;;3.95;100.00
61408;BME280;47274;43.054;25.146;2023-02-28T09:48:21;96352.63;;;4.35;100.00
61408;BME280;47274;43.054;25.146;2023-02-28T09:51:02;96298.09;;;3.96;100.00
61408;BME280;47274;43.054;25.146;2023-02-28T09:53:37;96366.06;;;4.37;100.00
61408;BME280;47274;43.054;25.146;2023-02-28T10:06:38;96372.94;;;4.80;100.00
61408;BME280;47274;43.054;25.146;2023-02-28T10:09:57;96304.88;;;4.40;100.00
61408;BME280;47274;43.054;25.146;2023-02-28T10:12:27;96294.25;;;4.34;100.00
61408;BME280;47274;43.054;25.146;2023-02-28T10:15:16;96327.59;;;4.58;100.00
61408;BME280;47274;43.054;25.146;2023-02-28T10:17:54;96360.22;;;4.80;100.00
61408;BME280;47274;43.054;25.146;2023-02-28T10:20:41;96338.03;;;4.53;100.00
61408;BME280;47274;43.054;25.146;2023-02-28T10:27:16;96299.63;;;4.43;100.00
61408;BME280;47274;43.054;25.146;2023-02-28T10:29:51;96326.06;;;4.55;100.00
61408;BME280;47274;43.054;25.146;2023-02-28T10:35:35;96254.22;;;4.09;100.00
61408;BME280;47274;43.054;25.146;2023-02-28T10:38:14;96229.53;;;3.96;100.00
61408;BME280;47274;43.054;25.146;2023-02-28T10:41:06;96271.84;;;4.12;100.00
61408;BME280;47274;43.054;25.146;2023-02-28T10:43:50;96301.50;;;4.11;100.00
61408;BME280;47274;43.054;25.146;2023-02-28T10:46:44;96259.91;;;3.84;100.00
61408;BME280;47274;43.054;25.146;2023-02-28T10:49:22;96281.63;;;4.03;100.00
61408;BME280;47274;43.054;25.146;2023-02-28T10:52:33;96347.06;;;4.59;100.00
61408;BME280;47274;43.054;25.146;2023-02-28T10:55:41;96257.41;;;4.12;100.00
61408;BME280;47274;43.054;25.146;2023-02-28T10:58:42;96349.88;;;4.68;100.00
61408;BME280;47274;43.054;25.146;2023-02-28T11:07:16;96344.50;;;4.59;100.00
61408;BME280;47274;43.054;25.146;2023-02-28T11:09:57;96344.69;;;4.56;100.00
61408;BME280;47274;43.054;25.146;2023-02-28T11:12:57;96316.78;;;4.40;100.00
61408;BME280;47274;43.054;25.146;2023-02-28T11:15:51;96254.41;;;4.06;100.00
61408;BME280;47274;43.054;25.146;2023-02-28T11:18:53;96263.31;;;4.13;100.00
61408;BME280;47274;43.054;25.146;2023-02-28T11:21:30;96264.41;;;4.23;100.00
61408;BME280;47274;43.054;25.146;2023-02-28T11:24:47;96301.38;;;4.57;100.00
61408;BME280;47274;43.054;25.146;2023-02-28T11:30:29;96302.91;;;4.60;100.00
61408;BME280;47274;43.054;25.146;2023-02-28T11:33:39;96266.31;;;4.34;100.00
61408;BME280;47274;43.054;25.146;2023-02-28T11:54:59;96320.25;;;4.53;100.00
61408;BME280;47274;43.054;25.146;2023-02-28T12:03:56;96305.41;;;4.17;100.00
61408;BME280;47274;43.054;25.146;2023-02-28T12:14:31;96304.88;;;4.40;100.00
61408;BME280;47274;43.054;25.146;2023-02-28T12:20:05;96299.34;;;4.34;100.00
61408;BME280;47274;43.054;25.146;2023-02-28T12:27:34;96308.63;;;4.35;100.00
61408;BME280;47274;43.054;25.146;2023-02-28T12:30:49;96266.47;;;4.02;100.00
61408;BME280;47274;43.054;25.146;2023-02-28T12:33:12;96322.31;;;4.32;100.00
61408;BME280;47274;43.054;25.146;2023-02-28T12:35:47;96318.69;;;4.36;100.00
61408;BME280;47274;43.054;25.146;2023-02-28T12:38:22;96318.84;;;4.33;100.00
61408;BME280;47274;43.054;25.146;2023-02-28T12:41:01;96271.88;;;3.96;100.00
61408;BME280;47274;43.054;25.146;2023-02-28T12:43:38;96304.88;;;4.26;100.00
61408;BME280;47274;43.054;25.146;2023-02-28T12:46:14;96292.69;;;4.17;100.00
61408;BME280;47274;43.054;25.146;2023-02-28T12:48:51;96319.22;;;4.27;100.00
61408;BME280;47274;43.054;25.146;2023-02-28T12:51:23;96309.50;;;4.19;100.00
61408;BME280;47274;43.054;25.146;2023-02-28T12:59:00;96265.63;;;3.87;100.00
61408;BME280;47274;43.054;25.146;2023-02-28T13:04:47;96322.31;;;4.32;100.00
61408;BME280;47274;43.054;25.146;2023-02-28T13:07:46;96309.50;;;4.34;100.00
61408;BME280;47274;43.054;25.146;2023-02-28T13:10:20;96308.34;;;4.25;100.00
61408;BME280;47274;43.054;25.146;2023-02-28T13:12:50;96311.13;;;4.20;100.00
61408;BME280;47274;43.054;25.146;2023-02-28T13:15:24;96189.47;;;3.43;100.00
61408;BME280;47274;43.054;25.146;2023-02-28T13:17:53;96250.63;;;3.83;100.00
61408;BME280;47274;43.054;25.146;2023-02-28T13:20:47;96258.72;;;3.89;100.00
61408;BME280;47274;43.054;25.146;2023-02-28T13:26:01;96317.50;;;4.27;100.00
61408;BME280;47274;43.054;25.146;2023-02-28T13:29:04;96312.84;;;4.20;100.00
61408;BME280;47274;43.054;25.146;2023-02-28T13:34:46;96239.16;;;3.61;100.00
61408;BME280;47274;43.054;25.146;2023-02-28T13:42:37;96311.97;;;3.91;100.00
61408;BME280;47274;43.054;25.146;2023-02-28T13:47:41;96318.03;;;3.88;100.00
61408;BME280;47274;43.054;25.146;2023-02-28T13:58:53;96311.50;;;3.84;100.00
61408;BME280;47274;43.054;25.146;2023-02-28T14:01:36;96313.06;;;3.87;100.00
61408;BME280;47274;43.054;25.146;2023-02-28T14:04:42;96310.84;;;3.80;100.00
61408;BME280;47274;43.054;25.146;2023-02-28T14:07:27;96268.97;;;3.58;100.00
61408;BME280;47274;43.054;25.146;2023-02-28T14:15:40;96197.38;;;3.06;100.00
61408;BME280;47274;43.054;25.146;2023-02-28T14:18:27;96203.34;;;3.05;100.00
61408;BME280;47274;43.054;25.146;2023-02-28T14:26:34;96307.25;;;3.69;100.00
61408;BME280;47274;43.054;25.146;2023-02-28T14:34:42;96322.59;;;3.67;100.00
61408;BME280;47274;43.054;25.146;2023-02-28T14:37:16;96321.75;;;3.67;100.00
61408;BME280;47274;43.054;25.146;2023-02-28T14:39:48;96281.88;;;3.39;100.00
61408;BME280;47274;43.054;25.146;2023-02-28T14:42:35;96322.59;;;3.67;100.00
61408;BME280;47274;43.054;25.146;2023-02-28T14:45:04;96273.09;;;3.44;100.00
61408;BME280;47274;43.054;25.146;2023-02-28T14:47:35;96247.28;;;3.22;100.00
61408;BME280;47274;43.054;25.146;2023-02-28T14:50:03;96307.41;;;3.66;100.00
61408;BME280;47274;43.054;25.146;2023-02-28T14:52:32;96263.69;;;3.30;100.00
61408;BME280;47274;43.054;25.146;2023-02-28T14:55:05;96210.53;;;2.97;100.00
61408;BME280;47274;43.054;25.146;2023-02-28T14:57:39;96231.25;;;3.05;100.00
61408;BME280;47274;43.054;25.146;2023-02-28T15:00:30;96322.75;;;3.64;100.00
61408;BME280;47274;43.054;25.146;2023-02-28T15:02:58;96228.38;;;2.96;100.00
61408;BME280;47274;43.054;25.146;2023-02-28T15:05:33;96330.94;;;3.69;100.00
61408;BME280;47274;43.054;25.146;2023-02-28T15:08:15;96340.50;;;3.64;100.00
61408;BME280;47274;43.054;25.146;2023-02-28T15:11:34;96322.59;;;3.51;100.00
61408;BME280;47274;43.054;25.146;2023-02-28T15:13:55;96238.94;;;2.88;100.00
61408;BME280;47274;43.054;25.146;2023-02-28T15:16:26;96273.38;;;3.08;100.00
61408;BME280;47274;43.054;25.146;2023-02-28T15:18:57;96328.41;;;3.53;100.00
61408;BME280;47274;43.054;25.146;2023-02-28T15:21:31;96269.59;;;3.15;100.00
61408;BME280;47274;43.054;25.146;2023-02-28T15:26:54;96227.81;;;2.91;100.00
61408;BME280;47274;43.054;25.146;2023-02-28T15:29:27;96326.13;;;3.49;100.00
61408;BME280;47274;43.054;25.146;2023-02-28T15:32:00;96285.47;;;3.19;100.00
61408;BME280;47274;43.054;25.146;2023-02-28T15:34:38;96268.53;;;3.03;100.00
61408;BME280;47274;43.054;25.146;2023-02-28T15:39:53;96317.78;;;3.31;100.00
61408;BME280;47274;43.054;25.146;2023-02-28T15:42:28;96338.66;;;3.36;100.00
61408;BME280;47274;43.054;25.146;2023-02-28T15:44:57;96281.94;;;3.05;100.00
61408;BME280;47274;43.054;25.146;2023-02-28T15:47:29;96257.56;;;2.87;100.00
61408;BME280;47274;43.054;25.146;2023-02-28T15:49:59;96333.97;;;3.44;100.00
61408;BME280;47274;43.054;25.146;2023-02-28T15:52:43;96305.34;;;3.26;100.00
61408;BME280;47274;43.054;25.146;2023-02-28T15:55:21;96269.34;;;3.04;100.00
61408;BME280;47274;43.054;25.146;2023-02-28T15:57:52;96322.69;;;3.34;100.00
61408;BME280;47274;43.054;25.146;2023-02-28T16:00:22;96325.06;;;3.37;100.00
61408;BME280;47274;43.054;25.146;2023-02-28T16:02:49;96198.38;;;2.56;100.00
61408;BME280;47274;43.054;25.146;2023-02-28T16:05:25;96344.22;;;3.27;100.00
61408;BME280;47274;43.054;25.146;2023-02-28T16:08:01;96331.03;;;3.20;100.00
61408;BME280;47274;43.054;25.146;2023-02-28T16:10:36;96221.25;;;2.55;100.00
61408;BME280;47274;43.054;25.146;2023-02-28T16:13:03;96341.44;;;3.16;100.00
61408;BME280;47274;43.054;25.146;2023-02-28T16:15:32;96270.00;;;2.76;100.00
61408;BME280;47274;43.054;25.146;2023-02-28T16:18:01;96349.28;;;3.27;100.00
61408;BME280;47274;43.054;25.146;2023-02-28T16:20:29;96332.66;;;3.05;100.00
61408;BME280;47274;43.054;25.146;2023-02-28T16:22:56;96279.06;;;2.80;100.00
61408;BME280;47274;43.054;25.146;2023-02-28T16:25:33;96351.81;;;3.27;100.00
61408;BME280;47274;43.054;25.146;2023-02-28T16:28:00;96346.66;;;3.13;100.00
61408;BME280;47274;43.054;25.146;2023-02-28T16:30:28;96225.25;;;2.43;100.00
61408;BME280;47274;43.054;25.146;2023-02-28T16:33:02;96255.75;;;2.57;100.00
61408;BME280;47274;43.054;25.146;2023-02-28T16:35:28;96262.94;;;2.65;100.00
61408;BME280;47274;43.054;25.146;2023-02-28T16:37:57;96359.09;;;3.17;100.00
61408;BME280;47274;43.054;25.146;2023-02-28T16:40:27;96297.81;;;2.77;100.00
61408;BME280;47274;43.054;25.146;2023-02-28T16:42:58;96230.63;;;2.37;100.00